Terminal Aerodrome Forecast
Issued by NWS

Home | Current Version | Previous Version | Text Only | Print | Product List | Glossary On
Versions: 1 2 3 4 5 6 7 8 9 10 11 12 13 14 15 16 17 18 19 20 21 22 23
000
FTUS46 KLOX 041100 RRA
TAFSBP
TAF
KSBP 041142Z 0412/0512 VRB05KT P6SM OVC020
     FM041500 27005KT P6SM BKN020
     FM041900 28008KT P6SM SCT020
     FM042100 29010KT P6SM SKC
     FM050300 VRB05KT P6SM BKN015
     FM050600 VRB05KT P6SM OVC015=

USA.gov is the U.S. government's official web portal to all federal, state and local government web resources and services.